Time;durP1;ratioP1;P1;durP2;ratioP2;P2;SDS_P1;SDS_P2;PMS_P1;PMS_P2;Temp;Humidity;BMP_temperature;BMP_pressure;BME280_temperature;BME280_humidity;BME280_pressure;Samples;Min_cycle;Max_cycle;Signal;HPM_P1;HPM_P2
2023/05/07 00:02:05;;;;;;;2.40;2.20;;;13.60;98.30;;;;;;5115816;27;20651;-69
2023/05/07 00:04:36;;;;;;;2.13;2.03;;;13.60;99.00;;;;;;5111192;27;20715;-68
2023/05/07 00:07:03;;;;;;;2.67;2.07;;;13.50;99.50;;;;;;5107104;27;20655;-68
2023/05/07 00:09:30;;;;;;;2.50;2.30;;;13.40;99.40;;;;;;5103944;28;21051;-68
2023/05/07 00:11:57;;;;;;;2.03;1.83;;;13.40;99.60;;;;;;5103551;28;20660;-69
2023/05/07 00:14:26;;;;;;;2.10;1.90;;;13.40;99.40;;;;;;5103044;28;20624;-69
2023/05/07 00:16:53;;;;;;;2.83;2.07;;;13.40;98.80;;;;;;5103422;28;21011;-69
2023/05/07 00:19:21;;;;;;;1.70;1.60;;;13.40;99.30;;;;;;5104823;28;20743;-69
2023/05/07 00:21:48;;;;;;;1.90;1.70;;;13.30;99.90;;;;;;5104922;28;20658;-69
2023/05/07 00:24:15;;;;;;;1.97;1.80;;;13.30;99.90;;;;;;5104769;28;20625;-69
2023/05/07 00:26:42;;;;;;;1.70;1.60;;;13.20;99.90;;;;;;5101102;28;20673;-69
2023/05/07 00:29:08;;;;;;;2.20;2.00;;;13.20;99.90;;;;;;5101687;28;20630;-69
2023/05/07 00:31:35;;;;;;;1.83;1.73;;;13.30;99.70;;;;;;5102237;28;20673;-69
2023/05/07 00:34:03;;;;;;;1.83;1.60;;;13.30;99.90;;;;;;5087318;28;20742;-69
2023/05/07 00:36:31;;;;;;;2.27;1.90;;;13.20;99.90;;;;;;5087282;28;20736;-69
2023/05/07 00:39:01;;;;;;;2.30;2.03;;;13.10;99.90;;;;;;5106951;28;20627;-69
2023/05/07 00:41:28;;;;;;;2.07;1.87;;;13.10;99.90;;;;;;5098667;28;20647;-69
2023/05/07 00:43:55;;;;;;;2.50;2.20;;;13.20;99.90;;;;;;5096737;28;20627;-69
2023/05/07 00:46:22;;;;;;;2.60;2.30;;;13.10;99.90;;;;;;5097991;28;20660;-69
2023/05/07 00:48:50;;;;;;;1.67;1.57;;;13.00;99.90;;;;;;5097427;28;21209;-69
2023/05/07 00:51:18;;;;;;;2.33;2.10;;;13.10;99.90;;;;;;5106761;28;20673;-69
2023/05/07 00:53:47;;;;;;;4.10;3.30;;;13.10;99.90;;;;;;5106055;28;21289;-69
2023/05/07 00:56:14;;;;;;;2.80;2.53;;;13.00;99.90;;;;;;5102559;28;20653;-69
2023/05/07 00:58:41;;;;;;;1.87;1.73;;;13.00;99.90;;;;;;5102616;28;20699;-69
2023/05/07 01:01:08;;;;;;;2.63;2.20;;;13.00;99.90;;;;;;5093526;28;20663;-69
2023/05/07 01:03:35;;;;;;;2.27;2.13;;;13.00;99.90;;;;;;5092391;28;20639;-69
2023/05/07 01:06:03;;;;;;;1.70;1.60;;;13.00;99.90;;;;;;5091156;28;20647;-69
2023/05/07 01:08:30;;;;;;;2.70;2.10;;;13.00;99.90;;;;;;5087217;28;20629;-69
2023/05/07 01:11:00;;;;;;;1.97;1.87;;;13.00;99.90;;;;;;5095727;28;21086;-69
2023/05/07 01:13:27;;;;;;;2.40;2.20;;;12.90;99.90;;;;;;5093811;28;20984;-69
2023/05/07 01:15:55;;;;;;;8.60;2.57;;;12.80;99.90;;;;;;5107097;28;20662;-69
2023/05/07 01:18:23;;;;;;;2.50;2.30;;;12.90;99.90;;;;;;5102513;28;20639;-69
2023/05/07 01:20:50;;;;;;;3.20;2.63;;;12.90;99.90;;;;;;5106336;28;20658;-69
2023/05/07 01:23:19;;;;;;;2.90;2.50;;;13.00;99.90;;;;;;5089637;28;20987;-69
2023/05/07 01:25:52;;;;;;;2.37;2.20;;;12.90;99.90;;;;;;5098939;28;20751;-69
2023/05/07 01:28:21;;;;;;;2.37;2.17;;;13.00;99.90;;;;;;5104334;28;21206;-69
2023/05/07 01:30:51;;;;;;;1.90;1.80;;;13.00;99.90;;;;;;5106087;28;20755;-69
2023/05/07 01:33:21;;;;;;;2.67;2.20;;;13.00;99.90;;;;;;5091771;28;20619;-69
2023/05/07 01:35:52;;;;;;;2.47;2.27;;;12.90;99.90;;;;;;5107004;28;20650;-69
2023/05/07 01:38:22;;;;;;;4.80;2.30;;;12.90;99.90;;;;;;5099730;28;20622;-69
2023/05/07 01:40:50;;;;;;;2.30;2.10;;;12.90;99.90;;;;;;5101022;28;21097;-69
2023/05/07 01:43:17;;;;;;;3.63;2.10;;;12.80;99.90;;;;;;5110105;28;20624;-69
2023/05/07 01:45:46;;;;;;;3.00;2.70;;;12.80;99.90;;;;;;5110942;28;20646;-69
2023/05/07 01:48:16;;;;;;;2.30;2.00;;;12.70;99.90;;;;;;5110806;28;20622;-69
2023/05/07 01:50:45;;;;;;;3.27;3.07;;;12.70;99.90;;;;;;5110515;28;20650;-69
2023/05/07 01:53:12;;;;;;;2.80;1.80;;;12.80;99.90;;;;;;5110089;28;21250;-69
2023/05/07 01:55:40;;;;;;;3.57;2.60;;;12.80;99.90;;;;;;5096389;28;20687;-69
2023/05/07 01:58:08;;;;;;;5.73;2.40;;;12.80;99.90;;;;;;5092812;28;21263;-68
2023/05/07 02:00:36;;;;;;;2.50;2.30;;;12.80;99.90;;;;;;5104845;28;20724;-69
2023/05/07 02:03:05;;;;;;;2.40;1.93;;;12.70;99.90;;;;;;5096452;28;20629;-69
2023/05/07 02:05:32;;;;;;;2.60;2.40;;;12.70;99.90;;;;;;5094716;28;20688;-69
2023/05/07 02:07:59;;;;;;;3.67;2.37;;;12.70;99.90;;;;;;5091002;28;20626;-69
2023/05/07 02:10:26;;;;;;;2.67;2.10;;;12.70;99.90;;;;;;5092442;28;20667;-69
2023/05/07 02:12:54;;;;;;;3.17;2.13;;;12.60;99.90;;;;;;5103941;28;20622;-69
2023/05/07 02:15:21;;;;;;;2.27;2.07;;;12.60;99.90;;;;;;5109305;28;20995;-69
2023/05/07 02:18:03;;;;;;;1.70;1.53;;;12.60;99.90;;;;;;5109895;27;20735;-69
2023/05/07 02:20:30;;;;;;;2.60;2.40;;;12.60;99.90;;;;;;5098862;28;20744;-69
2023/05/07 02:22:57;;;;;;;2.53;2.33;;;12.60;99.90;;;;;;5105519;28;20726;-69
2023/05/07 02:25:25;;;;;;;2.57;2.37;;;12.60;99.90;;;;;;5089587;28;20652;-69
2023/05/07 02:27:53;;;;;;;2.50;2.00;;;12.60;99.90;;;;;;5101068;28;20717;-69
2023/05/07 02:30:21;;;;;;;2.70;2.50;;;12.70;99.90;;;;;;5088951;28;20610;-69
2023/05/07 02:32:50;;;;;;;2.50;2.30;;;12.70;99.90;;;;;;5100112;28;20718;-69
2023/05/07 02:35:18;;;;;;;2.90;2.70;;;12.70;99.90;;;;;;5109695;28;20738;-69
2023/05/07 02:37:45;;;;;;;4.53;3.20;;;12.70;99.90;;;;;;5097967;28;20981;-69
2023/05/07 02:40:13;;;;;;;3.40;3.10;;;12.60;99.90;;;;;;5088701;28;20627;-69
2023/05/07 02:42:40;;;;;;;3.07;2.73;;;12.50;99.90;;;;;;5106671;28;20616;-69
2023/05/07 02:45:10;;;;;;;2.83;2.53;;;12.50;99.90;;;;;;5109507;28;21687;-69
2023/05/07 02:47:37;;;;;;;3.70;3.30;;;12.40;99.90;;;;;;5108740;28;20973;-68
2023/05/07 02:50:06;;;;;;;2.50;2.30;;;12.50;99.90;;;;;;5108743;28;20848;-69
2023/05/07 02:52:33;;;;;;;2.90;2.60;;;12.40;99.90;;;;;;5105750;28;21245;-69
2023/05/07 02:55:02;;;;;;;4.33;3.50;;;12.30;99.90;;;;;;5101445;28;20641;-69
2023/05/07 02:57:30;;;;;;;4.67;3.20;;;12.30;99.90;;;;;;5108821;28;21074;-69
2023/05/07 02:59:58;;;;;;;2.53;2.33;;;12.30;99.90;;;;;;5100124;28;21362;-69
2023/05/07 03:02:27;;;;;;;2.57;2.23;;;12.30;99.90;;;;;;5088900;28;20728;-69
2023/05/07 03:04:56;;;;;;;3.17;2.87;;;12.30;99.90;;;;;;5096356;28;20626;-69
2023/05/07 03:07:23;;;;;;;3.80;3.03;;;12.40;99.90;;;;;;5109867;28;20745;-69
2023/05/07 03:09:50;;;;;;;3.63;3.33;;;12.50;99.90;;;;;;5106961;28;20630;-69
2023/05/07 03:12:17;;;;;;;3.20;2.90;;;12.50;99.90;;;;;;5090599;28;20771;-68
2023/05/07 03:14:45;;;;;;;3.30;3.00;;;12.50;99.90;;;;;;5088795;28;20711;-69
2023/05/07 03:17:11;;;;;;;2.20;2.10;;;12.50;99.90;;;;;;5088617;28;20657;-69
2023/05/07 03:19:39;;;;;;;3.93;2.60;;;12.40;99.90;;;;;;5088468;28;20650;-68
2023/05/07 03:22:06;;;;;;;3.93;3.03;;;12.40;99.90;;;;;;5088716;28;20765;-69
2023/05/07 03:24:33;;;;;;;3.20;2.30;;;12.30;99.90;;;;;;5100017;28;20627;-69
2023/05/07 03:27:00;;;;;;;3.53;2.63;;;12.20;99.90;;;;;;5095414;28;20665;-69
2023/05/07 03:29:27;;;;;;;3.10;2.30;;;12.10;99.90;;;;;;5099933;28;20627;-69
2023/05/07 03:31:54;;;;;;;3.07;2.77;;;12.10;99.90;;;;;;5091282;28;21244;-69
2023/05/07 03:34:21;;;;;;;2.13;1.93;;;12.10;99.90;;;;;;5104220;28;20642;-69
2023/05/07 03:36:50;;;;;;;3.53;2.97;;;12.10;99.90;;;;;;5088978;28;20635;-69
2023/05/07 03:39:17;;;;;;;3.10;2.23;;;12.10;99.90;;;;;;5088426;28;21189;-69
2023/05/07 03:41:44;;;;;;;2.37;2.17;;;12.00;99.90;;;;;;5097494;28;20680;-69
2023/05/07 03:44:10;;;;;;;2.70;2.50;;;11.90;99.90;;;;;;5108770;28;20659;-69
2023/05/07 03:46:37;;;;;;;2.60;2.40;;;11.90;99.90;;;;;;5108072;28;20640;-69
2023/05/07 03:49:04;;;;;;;2.93;2.10;;;12.00;99.90;;;;;;5107813;28;20626;-69
2023/05/07 03:51:31;;;;;;;2.07;1.93;;;12.00;99.90;;;;;;5107654;28;20657;-68
2023/05/07 03:53:59;;;;;;;2.73;2.30;;;12.00;99.90;;;;;;5105422;28;20640;-68
2023/05/07 03:56:27;;;;;;;5.33;3.07;;;11.90;99.90;;;;;;5095218;28;20690;-68
2023/05/07 03:58:54;;;;;;;3.17;2.53;;;11.80;99.90;;;;;;5095011;28;20709;-69
2023/05/07 04:01:21;;;;;;;2.73;2.10;;;11.80;99.90;;;;;;5095928;28;20665;-68
2023/05/07 04:03:47;;;;;;;2.57;2.37;;;11.80;99.90;;;;;;5094305;28;20650;-69
2023/05/07 04:06:16;;;;;;;3.00;2.50;;;11.80;99.90;;;;;;5093226;28;20659;-69
2023/05/07 04:08:43;;;;;;;2.77;2.47;;;11.80;99.90;;;;;;5107479;28;20630;-69
2023/05/07 04:11:11;;;;;;;3.10;2.83;;;11.90;99.90;;;;;;5098758;28;20660;-69
2023/05/07 04:13:38;;;;;;;3.17;2.97;;;11.90;99.90;;;;;;5103048;28;20666;-69
2023/05/07 04:16:05;;;;;;;5.07;2.70;;;11.80;99.90;;;;;;5103510;28;20642;-69
2023/05/07 04:18:32;;;;;;;3.47;2.10;;;11.80;99.90;;;;;;5087936;28;20720;-69
2023/05/07 04:20:59;;;;;;;2.90;2.70;;;11.80;99.90;;;;;;5091651;28;20753;-69
2023/05/07 04:23:26;;;;;;;3.53;2.80;;;11.80;99.90;;;;;;5088081;28;20617;-69
2023/05/07 04:25:54;;;;;;;2.10;1.90;;;11.80;99.90;;;;;;5094487;28;20650;-69
2023/05/07 04:28:22;;;;;;;4.37;2.57;;;11.80;99.90;;;;;;5105469;28;21205;-69
2023/05/07 04:30:49;;;;;;;3.70;2.80;;;11.70;99.90;;;;;;5105286;28;20672;-69
2023/05/07 04:33:16;;;;;;;4.00;2.77;;;11.70;99.90;;;;;;5106217;28;20629;-69
2023/05/07 04:35:43;;;;;;;3.30;2.50;;;11.70;99.90;;;;;;5086534;28;20654;-69
2023/05/07 04:38:10;;;;;;;4.27;2.77;;;11.70;99.90;;;;;;5087940;28;20622;-69
2023/05/07 04:40:38;;;;;;;2.33;2.13;;;11.80;99.90;;;;;;5087318;28;20734;-69
2023/05/07 04:43:05;;;;;;;2.20;1.90;;;11.80;99.90;;;;;;5107409;28;20805;-69
2023/05/07 04:45:33;;;;;;;3.27;2.80;;;11.80;99.90;;;;;;5107556;28;20678;-69
2023/05/07 04:48:00;;;;;;;2.80;1.97;;;11.80;99.90;;;;;;5101187;28;20640;-69
2023/05/07 04:50:27;;;;;;;2.87;2.13;;;11.80;99.90;;;;;;5087102;28;21234;-69
2023/05/07 04:52:54;;;;;;;2.83;2.60;;;11.80;99.90;;;;;;5090960;28;20634;-69
2023/05/07 04:55:20;;;;;;;4.07;2.43;;;11.90;99.90;;;;;;5107328;28;20635;-69
2023/05/07 04:57:47;;;;;;;2.60;2.37;;;11.90;99.90;;;;;;5101382;28;20624;-69
2023/05/07 05:00:15;;;;;;;3.17;1.90;;;11.90;99.90;;;;;;5100529;28;20621;-69
2023/05/07 05:02:43;;;;;;;1.93;1.83;;;11.90;99.90;;;;;;5090549;28;21132;-69
2023/05/07 05:05:10;;;;;;;2.13;2.03;;;11.90;99.90;;;;;;5091287;28;20691;-69
2023/05/07 05:07:36;;;;;;;3.07;2.50;;;11.90;99.90;;;;;;5087350;28;20658;-69
2023/05/07 05:10:03;;;;;;;4.30;2.70;;;11.90;99.90;;;;;;5092698;28;20635;-69
2023/05/07 05:12:30;;;;;;;2.67;2.47;;;11.90;99.90;;;;;;5101556;28;20629;-69
2023/05/07 05:14:57;;;;;;;3.50;2.27;;;11.80;99.90;;;;;;5087043;28;21164;-69
2023/05/07 05:17:24;;;;;;;2.50;2.20;;;11.80;99.90;;;;;;5094759;28;21082;-69
2023/05/07 05:19:52;;;;;;;4.00;2.30;;;11.90;99.90;;;;;;5104880;28;20983;-69
2023/05/07 05:22:19;;;;;;;1.97;1.67;;;12.00;99.90;;;;;;5097522;28;20688;-69
2023/05/07 05:24:45;;;;;;;2.50;2.30;;;12.10;99.90;;;;;;5111247;28;20618;-69
2023/05/07 05:27:12;;;;;;;2.60;2.40;;;12.20;99.90;;;;;;5106807;28;21016;-69
2023/05/07 05:29:39;;;;;;;2.30;2.10;;;12.30;99.90;;;;;;5092385;27;20697;-69
2023/05/07 05:32:06;;;;;;;1.80;1.63;;;12.40;99.90;;;;;;5090417;28;21123;-69
2023/05/07 05:34:33;;;;;;;5.00;2.80;;;12.50;99.90;;;;;;5103847;28;20628;-69
2023/05/07 05:37:01;;;;;;;3.03;2.03;;;12.60;99.90;;;;;;5094276;28;20739;-69
2023/05/07 05:39:28;;;;;;;2.47;2.10;;;12.80;99.90;;;;;;5107980;27;20621;-69
2023/05/07 05:41:55;;;;;;;4.03;2.70;;;12.90;99.90;;;;;;5115021;27;20664;-69
2023/05/07 05:44:21;;;;;;;3.03;1.70;;;13.10;99.90;;;;;;5117690;27;20627;-69
2023/05/07 05:46:49;;;;;;;2.63;2.23;;;13.20;99.90;;;;;;5103486;27;20661;-69
2023/05/07 05:49:16;;;;;;;4.43;2.77;;;13.30;99.90;;;;;;5106368;28;20642;-69
2023/05/07 05:51:43;;;;;;;2.00;1.90;;;13.50;99.90;;;;;;5101778;28;20746;-69
2023/05/07 05:54:11;;;;;;;2.30;2.10;;;13.70;99.90;;;;;;5096649;28;20736;-69
2023/05/07 05:56:38;;;;;;;2.17;1.97;;;13.80;99.90;;;;;;5090284;28;20656;-69
2023/05/07 05:59:05;;;;;;;2.70;2.20;;;13.90;99.90;;;;;;5099839;28;20627;-71
2023/05/07 06:01:31;;;;;;;2.17;1.97;;;14.10;99.90;;;;;;5099898;28;20751;-71
2023/05/07 06:03:58;;;;;;;2.00;1.83;;;14.30;99.90;;;;;;5094964;28;20626;-71
2023/05/07 06:06:25;;;;;;;1.90;1.80;;;14.30;99.90;;;;;;5096085;28;21302;-72
2023/05/07 06:08:52;;;;;;;1.83;1.67;;;14.40;99.90;;;;;;5094267;28;20707;-71
2023/05/07 06:11:21;;;;;;;1.27;1.17;;;14.60;99.90;;;;;;5095666;28;20688;-71
2023/05/07 06:13:48;;;;;;;2.30;2.10;;;14.70;99.80;;;;;;5092159;28;20638;-71
2023/05/07 06:16:15;;;;;;;2.10;2.00;;;14.80;99.20;;;;;;5109789;28;21276;-72
2023/05/07 06:18:42;;;;;;;1.40;1.30;;;15.00;98.10;;;;;;5100792;28;20630;-71
2023/05/07 06:21:08;;;;;;;1.73;1.60;;;15.10;98.00;;;;;;5092681;28;21210;-71
2023/05/07 06:23:35;;;;;;;1.90;1.67;;;15.20;98.40;;;;;;5103758;28;20676;-71
2023/05/07 06:26:02;;;;;;;1.70;1.60;;;15.30;97.50;;;;;;5101377;28;20666;-69
2023/05/07 06:28:35;;;;;;;1.37;1.27;;;15.30;97.40;;;;;;5101820;28;21276;-68
2023/05/07 06:31:12;;;;;;;2.10;1.77;;;15.40;97.40;;;;;;5092600;28;20668;-68
2023/05/07 06:33:39;;;;;;;1.87;1.53;;;15.40;97.30;;;;;;5091131;27;20633;-68
2023/05/07 06:36:07;;;;;;;1.80;1.70;;;15.50;97.50;;;;;;5089554;28;20964;-68
2023/05/07 06:38:34;;;;;;;2.10;1.90;;;15.50;97.30;;;;;;5090206;28;20626;-68
2023/05/07 06:41:00;;;;;;;3.13;2.50;;;15.30;97.50;;;;;;5106987;28;20651;-68
2023/05/07 06:43:27;;;;;;;3.00;1.83;;;15.30;97.40;;;;;;5094512;27;20666;-68
2023/05/07 06:45:55;;;;;;;1.83;1.67;;;15.30;97.60;;;;;;5089373;28;20666;-68
2023/05/07 06:48:22;;;;;;;2.43;2.23;;;15.40;97.70;;;;;;5098206;28;20636;-68
2023/05/07 06:50:49;;;;;;;2.30;2.10;;;15.30;97.60;;;;;;5102928;28;20654;-68
2023/05/07 06:53:15;;;;;;;2.20;2.00;;;15.50;97.80;;;;;;5088741;28;20631;-68
2023/05/07 06:55:42;;;;;;;4.60;2.37;;;15.70;97.80;;;;;;5097016;28;21213;-68
2023/05/07 06:58:09;;;;;;;2.43;2.20;;;15.80;97.20;;;;;;5101886;28;21210;-68
2023/05/07 07:00:36;;;;;;;2.20;1.57;;;15.90;97.20;;;;;;5103553;28;20752;-68
2023/05/07 07:03:04;;;;;;;1.97;1.30;;;16.00;96.80;;;;;;5094851;28;20666;-69
2023/05/07 07:05:31;;;;;;;2.53;1.93;;;16.10;96.70;;;;;;5099508;28;20660;-68
2023/05/07 07:07:57;;;;;;;3.23;2.47;;;16.20;96.80;;;;;;5107641;28;20661;-69
2023/05/07 07:10:24;;;;;;;2.20;1.80;;;16.20;96.70;;;;;;5102463;28;20655;-69
2023/05/07 07:12:52;;;;;;;2.07;1.87;;;16.50;96.50;;;;;;5107517;28;20729;-69
2023/05/07 07:15:20;;;;;;;3.17;2.30;;;16.50;96.70;;;;;;5095051;28;20987;-69
2023/05/07 07:17:47;;;;;;;1.80;1.70;;;16.70;96.30;;;;;;5095650;28;20674;-69
2023/05/07 07:20:15;;;;;;;2.50;2.30;;;16.70;96.30;;;;;;5106681;28;20668;-70
2023/05/07 07:22:42;;;;;;;1.83;1.73;;;16.80;96.60;;;;;;5092496;28;20769;-69
2023/05/07 07:25:10;;;;;;;2.30;2.10;;;17.00;96.40;;;;;;5105663;28;21046;-69
2023/05/07 07:27:37;;;;;;;2.03;1.70;;;17.10;96.50;;;;;;5101681;28;20631;-69
2023/05/07 07:30:05;;;;;;;2.30;1.90;;;17.30;96.60;;;;;;5102011;28;20968;-69
2023/05/07 07:32:33;;;;;;;2.00;1.80;;;17.30;96.50;;;;;;5094418;28;20630;-69
2023/05/07 07:35:00;;;;;;;2.80;2.20;;;17.50;96.00;;;;;;5099298;28;20628;-69
2023/05/07 07:37:28;;;;;;;2.17;2.00;;;17.70;95.10;;;;;;5088438;28;20663;-69
2023/05/07 07:39:55;;;;;;;2.17;1.97;;;17.90;95.50;;;;;;5087560;28;20643;-69
2023/05/07 07:42:22;;;;;;;1.93;1.83;;;17.80;95.40;;;;;;5103729;28;20694;-69
2023/05/07 07:44:49;;;;;;;2.70;2.50;;;18.00;95.20;;;;;;5108966;28;21188;-69
2023/05/07 07:47:16;;;;;;;2.40;1.87;;;18.20;95.10;;;;;;5107747;28;20761;-69
2023/05/07 07:49:43;;;;;;;1.87;1.77;;;18.40;94.90;;;;;;5108404;28;20655;-69
2023/05/07 07:52:09;;;;;;;2.17;2.07;;;18.50;94.70;;;;;;5108771;27;20659;-69
2023/05/07 07:54:37;;;;;;;2.43;2.20;;;18.60;94.50;;;;;;5108884;28;20623;-69
2023/05/07 07:57:04;;;;;;;2.10;2.00;;;18.80;94.50;;;;;;5093644;28;21317;-69
2023/05/07 07:59:31;;;;;;;1.93;1.67;;;18.90;94.00;;;;;;5101142;28;20626;-70
2023/05/07 08:01:58;;;;;;;2.00;1.90;;;19.00;94.00;;;;;;5087842;28;20649;-70
2023/05/07 08:04:25;;;;;;;2.37;2.20;;;19.10;94.00;;;;;;5087107;28;20637;-71
2023/05/07 08:06:54;;;;;;;2.27;2.07;;;19.30;93.90;;;;;;5100422;28;20752;-70
2023/05/07 08:09:21;;;;;;;2.17;1.97;;;19.40;94.10;;;;;;5104055;28;20628;-70
2023/05/07 08:11:49;;;;;;;2.80;2.57;;;19.40;93.80;;;;;;5087877;28;21273;-71
2023/05/07 08:14:16;;;;;;;1.90;1.80;;;19.30;92.90;;;;;;5103110;28;20646;-70
2023/05/07 08:16:43;;;;;;;2.70;2.00;;;19.30;93.60;;;;;;5107852;28;20663;-70
2023/05/07 08:19:10;;;;;;;2.80;1.83;;;19.30;92.60;;;;;;5091005;28;20633;-71
2023/05/07 08:21:40;;;;;;;2.70;1.60;;;19.30;93.40;;;;;;5096258;28;20658;-70
2023/05/07 08:24:07;;;;;;;2.43;2.20;;;19.40;93.10;;;;;;5091275;28;21071;-70
2023/05/07 08:26:35;;;;;;;2.67;2.13;;;19.60;93.20;;;;;;5090886;28;20695;-70
2023/05/07 08:29:03;;;;;;;2.63;2.43;;;19.80;93.00;;;;;;5093885;28;20633;-70
2023/05/07 08:31:30;;;;;;;2.80;2.47;;;20.00;92.50;;;;;;5089721;28;20657;-70
2023/05/07 08:33:57;;;;;;;2.70;2.50;;;20.20;92.50;;;;;;5105685;28;20982;-68
2023/05/07 08:36:25;;;;;;;1.80;1.70;;;20.20;92.50;;;;;;5098966;28;20663;-69
2023/05/07 08:38:52;;;;;;;2.23;2.03;;;20.30;93.20;;;;;;5108577;28;20620;-69
2023/05/07 08:41:20;;;;;;;3.03;1.87;;;20.50;91.60;;;;;;5106779;28;20650;-69
2023/05/07 08:43:49;;;;;;;2.23;1.97;;;20.60;92.00;;;;;;5108911;28;20660;-69
2023/05/07 08:46:20;;;;;;;2.97;1.97;;;20.50;91.50;;;;;;5109503;28;20647;-69
2023/05/07 08:48:49;;;;;;;2.50;2.30;;;20.70;91.70;;;;;;5110492;28;21035;-69
2023/05/07 08:51:18;;;;;;;1.77;1.67;;;20.70;91.30;;;;;;5108076;28;20747;-69
2023/05/07 08:53:45;;;;;;;4.13;2.20;;;20.80;91.70;;;;;;5113062;28;20630;-69
2023/05/07 08:56:13;;;;;;;2.60;2.33;;;20.80;91.40;;;;;;5111967;28;21083;-69
2023/05/07 08:58:43;;;;;;;2.50;2.30;;;20.90;90.70;;;;;;5108091;28;20616;-69
2023/05/07 09:01:11;;;;;;;2.57;2.37;;;20.90;90.90;;;;;;5109241;27;20656;-72
2023/05/07 09:03:41;;;;;;;2.20;2.10;;;21.10;90.40;;;;;;5109313;28;20747;-72
2023/05/07 09:06:08;;;;;;;2.43;2.23;;;21.10;90.80;;;;;;5110993;28;20660;-72
2023/05/07 09:08:35;;;;;;;3.17;2.20;;;21.20;90.80;;;;;;5111253;28;20711;-71
2023/05/07 09:11:04;;;;;;;2.60;2.40;;;21.30;90.40;;;;;;5113139;28;20640;-71
2023/05/07 09:13:31;;;;;;;2.20;2.10;;;21.40;89.60;;;;;;5112318;28;20624;-70
2023/05/07 09:15:58;;;;;;;3.00;2.70;;;21.40;89.80;;;;;;5113917;28;20655;-70
2023/05/07 09:18:30;;;;;;;2.43;2.30;;;21.50;89.80;;;;;;5109300;28;20624;-72
2023/05/07 09:28:28;;;;;;;2.23;1.97;;;21.70;88.30;;;;;;5092367;28;20928;-72
2023/05/07 09:30:56;;;;;;;2.73;2.53;;;21.80;87.50;;;;;;5111546;28;20639;-72
2023/05/07 09:33:28;;;;;;;1.90;1.80;;;21.90;88.30;;;;;;5110402;28;21259;-69
2023/05/07 09:35:55;;;;;;;1.70;1.60;;;22.00;87.00;;;;;;5110474;28;20656;-73
2023/05/07 09:38:23;;;;;;;3.17;2.20;;;22.00;86.60;;;;;;5110624;28;20735;-74
2023/05/07 09:41:03;;;;;;;1.80;1.70;;;22.10;86.70;;;;;;5111212;28;21049;-73
2023/05/07 09:43:34;;;;;;;2.87;2.47;;;22.20;87.60;;;;;;5111408;28;20648;-72
2023/05/07 09:46:04;;;;;;;1.73;1.63;;;22.30;85.40;;;;;;5111693;28;21002;-72
2023/05/07 09:48:31;;;;;;;1.90;1.77;;;22.40;83.50;;;;;;5109211;28;20634;-72
2023/05/07 09:51:03;;;;;;;2.47;2.07;;;22.40;83.10;;;;;;5101080;28;21175;-72
2023/05/07 09:53:32;;;;;;;1.60;1.53;;;22.50;83.80;;;;;;5111702;28;20616;-74
2023/05/07 09:56:00;;;;;;;1.70;1.60;;;22.70;84.40;;;;;;5111701;28;20731;-74
2023/05/07 09:58:27;;;;;;;1.80;1.70;;;22.80;79.90;;;;;;5101314;28;20628;-74
2023/05/07 10:00:54;;;;;;;2.50;2.30;;;22.90;80.80;;;;;;5099498;28;21002;-74
2023/05/07 10:03:22;;;;;;;6.00;1.97;;;22.90;81.40;;;;;;5094034;28;20692;-74
2023/05/07 10:05:51;;;;;;;1.60;1.50;;;22.90;80.10;;;;;;5113104;28;20644;-73
2023/05/07 10:08:19;;;;;;;1.60;1.50;;;22.90;80.80;;;;;;5094842;28;20625;-73
2023/05/07 10:10:48;;;;;;;2.60;2.40;;;23.10;81.30;;;;;;5101460;28;20852;-74
2023/05/07 10:13:15;;;;;;;2.45;2.25;;;23.30;79.20;;;;;;5100111;28;20863;-74
2023/05/07 10:15:42;;;;;;;2.13;1.73;;;23.40;82.90;;;;;;5093570;28;20229;-75
2023/05/07 10:18:09;;;;;;;1.73;1.63;;;23.40;80.80;;;;;;5093482;28;20998;-74
2023/05/07 10:20:38;;;;;;;1.83;1.73;;;23.60;80.50;;;;;;5094507;28;20624;-74
2023/05/07 10:23:06;;;;;;;1.83;1.73;;;23.70;77.90;;;;;;5098675;28;20644;-74
2023/05/07 10:25:33;;;;;;;2.00;1.90;;;23.70;77.50;;;;;;5112908;27;21037;-74
2023/05/07 10:28:06;;;;;;;1.50;1.40;;;23.80;75.70;;;;;;5105655;28;20680;-74
2023/05/07 10:30:44;;;;;;;2.17;2.00;;;23.60;76.20;;;;;;5113143;28;20643;-74
2023/05/07 10:33:14;;;;;;;2.10;2.00;;;23.90;75.10;;;;;;5112308;28;21359;-74
2023/05/07 10:35:44;;;;;;;1.90;1.37;;;24.00;77.10;;;;;;5113070;28;20253;-74
2023/05/07 10:38:11;;;;;;;1.90;1.80;;;24.00;74.80;;;;;;5098990;28;20803;-74
2023/05/07 10:40:38;;;;;;;2.17;2.07;;;24.10;75.20;;;;;;5109264;28;20993;-75
2023/05/07 10:43:07;;;;;;;2.43;2.23;;;24.40;76.90;;;;;;5112657;28;20658;-74
2023/05/07 10:45:34;;;;;;;2.47;2.27;;;24.50;75.60;;;;;;5101040;28;20643;-74
2023/05/07 10:48:08;;;;;;;1.73;1.63;;;24.90;75.90;;;;;;5113262;28;20964;-74
2023/05/07 10:50:36;;;;;;;1.73;1.63;;;24.80;72.10;;;;;;5100263;28;20640;-73
2023/05/07 10:53:23;;;;;;;2.43;2.33;;;24.90;73.00;;;;;;5103910;28;20947;-72
2023/05/07 10:55:52;;;;;;;2.47;2.23;;;24.90;72.90;;;;;;5092815;28;20656;-72
2023/05/07 10:58:26;;;;;;;1.70;1.60;;;24.90;70.90;;;;;;5097946;28;20622;-72
2023/05/07 11:00:58;;;;;;;2.17;1.93;;;25.00;69.60;;;;;;5110055;28;20676;-72
2023/05/07 11:03:25;;;;;;;1.83;1.73;;;25.00;69.40;;;;;;5101707;28;20663;-72
2023/05/07 11:06:10;;;;;;;2.00;1.90;;;25.20;68.60;;;;;;5100199;28;20664;-72
2023/05/07 11:08:56;;;;;;;1.80;1.70;;;25.30;68.60;;;;;;5107006;28;20625;-73
2023/05/07 11:11:47;;;;;;;1.97;1.87;;;25.60;67.90;;;;;;5106741;28;20721;-73
2023/05/07 11:14:45;;;;;;;1.90;1.80;;;25.60;66.70;;;;;;5091509;28;20624;-73
2023/05/07 11:17:13;;;;;;;1.80;1.70;;;25.60;68.40;;;;;;5091858;28;20681;-73
2023/05/07 11:19:52;;;;;;;2.20;1.83;;;25.70;66.70;;;;;;5090699;28;20626;-72
2023/05/07 11:22:40;;;;;;;2.70;1.87;;;26.30;65.90;;;;;;5112881;28;20740;-72
2023/05/07 11:25:08;;;;;;;2.33;2.13;;;26.50;63.10;;;;;;5092061;28;20644;-72
2023/05/07 11:27:35;;;;;;;1.60;1.50;;;26.60;62.50;;;;;;5092561;28;20721;-72
2023/05/07 11:30:03;;;;;;;3.33;2.00;;;26.30;60.30;;;;;;5109887;28;20985;-73
2023/05/07 11:32:31;;;;;;;1.47;1.37;;;25.80;62.80;;;;;;5101766;28;20636;-73
2023/05/07 11:35:00;;;;;;;2.23;1.97;;;25.60;63.60;;;;;;5100837;28;20622;-73
2023/05/07 11:37:29;;;;;;;1.90;1.80;;;25.30;64.80;;;;;;5091991;28;20645;-73
2023/05/07 11:40:05;;;;;;;2.60;1.80;;;24.90;65.30;;;;;;5099745;28;20653;-73
2023/05/07 11:42:33;;;;;;;2.10;2.00;;;24.70;66.40;;;;;;5107467;28;21229;-73
2023/05/07 11:45:06;;;;;;;2.23;2.13;;;24.60;66.40;;;;;;5111466;28;21011;-73
2023/05/07 11:47:33;;;;;;;1.93;1.83;;;24.60;65.20;;;;;;5112044;28;20619;-72
2023/05/07 11:50:04;;;;;;;1.93;1.67;;;24.70;66.00;;;;;;5098136;28;21083;-72
2023/05/07 11:52:31;;;;;;;1.87;1.77;;;24.20;69.70;;;;;;5111934;28;20631;-72
2023/05/07 11:55:00;;;;;;;1.90;1.80;;;23.80;69.70;;;;;;5111589;28;21025;-72
2023/05/07 11:57:28;;;;;;;2.00;1.90;;;23.70;70.00;;;;;;5111180;28;20722;-72
2023/05/07 11:59:55;;;;;;;2.77;2.57;;;23.60;71.60;;;;;;5106338;28;20802;-72
2023/05/07 12:02:25;;;;;;;1.77;1.67;;;23.50;71.40;;;;;;5092552;28;21088;-72
2023/05/07 12:04:52;;;;;;;2.60;2.40;;;23.30;73.10;;;;;;5090933;28;20641;-72
2023/05/07 12:07:18;;;;;;;2.30;1.87;;;22.90;73.90;;;;;;5106436;28;20652;-73
2023/05/07 12:09:47;;;;;;;3.13;2.10;;;22.20;77.30;;;;;;5094972;28;20958;-72
2023/05/07 12:12:15;;;;;;;1.30;1.20;;;21.80;80.10;;;;;;5092663;28;20644;-72
2023/05/07 12:14:46;;;;;;;2.20;2.03;;;21.50;81.70;;;;;;5095824;27;20620;-72
2023/05/07 12:17:14;;;;;;;1.90;1.80;;;21.10;82.40;;;;;;5105407;28;20632;-72
2023/05/07 12:19:45;;;;;;;1.47;1.37;;;20.70;83.60;;;;;;5110516;28;20723;-72
2023/05/07 12:22:12;;;;;;;2.80;1.80;;;20.50;85.60;;;;;;5092776;28;20727;-72
2023/05/07 12:24:46;;;;;;;2.37;2.17;;;20.40;88.90;;;;;;5108251;28;20753;-72
2023/05/07 12:27:14;;;;;;;1.73;1.53;;;20.10;90.10;;;;;;5108391;28;20679;-71
2023/05/07 12:29:46;;;;;;;1.53;1.43;;;19.80;86.10;;;;;;5110315;28;20990;-71
2023/05/07 12:32:15;;;;;;;1.60;1.50;;;19.60;85.80;;;;;;5111533;28;20715;-72
2023/05/07 12:34:43;;;;;;;2.30;1.37;;;19.30;88.00;;;;;;5092659;28;20609;-72
2023/05/07 12:37:11;;;;;;;1.80;1.10;;;19.20;90.00;;;;;;5101362;28;20640;-72
2023/05/07 12:39:37;;;;;;;1.67;1.57;;;18.70;91.50;;;;;;5108315;28;20623;-71
2023/05/07 12:42:04;;;;;;;1.13;1.03;;;18.40;92.70;;;;;;5107657;28;20651;-73
2023/05/07 12:44:33;;;;;;;1.03;0.83;;;18.00;93.50;;;;;;5111309;28;20988;-72
2023/05/07 12:47:03;;;;;;;0.80;0.60;;;17.90;91.00;;;;;;5095985;28;21242;-72
2023/05/07 12:49:30;;;;;;;0.87;0.87;;;17.60;91.00;;;;;;5105368;28;20631;-72
2023/05/07 12:51:59;;;;;;;1.40;0.90;;;17.60;91.10;;;;;;5101018;28;20739;-72
2023/05/07 12:54:32;;;;;;;1.10;1.00;;;17.60;92.20;;;;;;5096164;28;20728;-72
2023/05/07 12:57:03;;;;;;;0.70;0.60;;;17.60;92.60;;;;;;5090574;28;20626;-72
2023/05/07 12:59:37;;;;;;;1.00;0.57;;;17.70;91.20;;;;;;5106189;28;20733;-72
2023/05/07 13:02:04;;;;;;;1.27;0.60;;;17.80;90.80;;;;;;5090485;28;20646;-72